X  Kiinni Metar Aviation säätiedot        EDDB TXL
Lämpötila
2°C Lämpötila
1°C Kastepiste
93% Kosteus



Tuuli
39 KM/T
24 MPH
11 M/S
21 KTS



240°
LESL
Nykyiset olosuhteet

Mostly Cloudy with Drizzle Enimmäkseen pilvistä , Tihkusade
Paine 995 (hPa) - 29.39 (inHg)
Näkyvyys 4 (maili) - 6 (km)
Lentokenttä
Lentokentän koodi EDDB

Sijainti: TXL
Etäisyys: 10 (km)

Metar:
METAR EDDB 300920Z 24021KT 6000 -RADZ BKN008 BKN015 02/01 Q0995 TEMPO 24020G30KT 4000 -RADZ BKN010

Aika: 30.11.2021 10:20 CET